Fort Dodge Regional Airport
KFOD : rendu visible

Aérodrome :











RETROUVEZ-NOUS SUR...

 
LOGIN :

S'inscrire | Disclaimer

   EN    FR    IT 

 









Légende :    VFR   VFR Marginal   IFR   IFR Intensif   IFR Très Intensif
Visi : 
Plafond : 
>= 8 km
>= 3000ft
5 à 8 km
1000 à 3000 ft
1500m à 5 km
500 à 1000 ft
800 à 1500m
200 à 500 ft
< 800m
< 200 ft
Symboles :   Orages  Brouillard  Fortes neiges  Fortes précipitations  Vent > 20 kt






- Altitude de l'aérodrome : 1156 ft
- Code IATA : FOD


KFOD - Fort Dodge Regional

DERNIER METAR :
  • 280956Z AUTO 07014G22KT 3SM -RA BR OVC003 08/07 A2961 RMK AO2 SLP058 P0001 T00780072

METARs EXPIRÉS :
  • 280941Z AUTO 07014KT 3SM -RA BR OVC003 08/07 A2963 RMK AO2 P0001
  • 280926Z AUTO 05009KT 2 1/2SM -RA BR OVC003 08/07 A2963 RMK AO2 P0000
  • 280856Z AUTO 05008KT 4SM -RA BR OVC003 08/07 A2966 RMK AO2 RAB21 SLP072 P0000 60001 T00780072 58003
  • 280756Z AUTO 05007KT 8SM OVC003 08/07 A2965 RMK AO2 RAE42 SLP070 P0000 T00780072

TAF KFOD
Valide du 28 à 06h jusqu'au 29 à 06h UTC


280520Z 2806/2906 05006KT 2SM SHRA BR OVC003
FM280800 05006KT 3/4SM BR VCSH OVC003
FM281400 08012KT 4SM BR VCSH OVC003
FM281800 09016G24KT P6SM VCSH OVC006
FM290100 22006KT P6SM -SHRA OVC008
FM290400 31013G21KT P6SM OVC008



MET'MAP, la Météo Aéronautique d'un coup d'oeil ! - Copyright ORBIFLY Décembre 2007 - Disclaimer

ORBIFLY MET'MAP TEAM :

Programmation & Développement : Alexandra Zaïnal
Sur une idée originale de : Baudouin d'Aumeries
Assistance à la programmation : Marc-Olivier Méhu
Soutien technique & logistique : Manuel Goepfert

Contact : metmap@orbifly.com




SOURCES & CREDITS :

   NOAA       Earth
Advisory